createdAt,value
2018-04-19T00:00:36.182Z,64.64
2018-04-19T00:03:03.801Z,64.70
2018-04-19T00:05:31.395Z,64.64
2018-04-19T00:07:58.979Z,65.38
2018-04-19T00:10:26.589Z,66.03
2018-04-19T00:12:54.119Z,65.31
2018-04-19T00:15:21.698Z,65.48
2018-04-19T00:17:49.223Z,66.50
2018-04-19T00:20:16.774Z,66.36
2018-04-19T00:22:44.329Z,66.33
2018-04-19T00:25:11.904Z,66.12
2018-04-19T00:27:39.436Z,67.17
2018-04-19T00:30:07.034Z,67.93
2018-04-19T00:32:34.557Z,69.25
2018-04-19T00:35:02.113Z,69.74
2018-04-19T00:37:29.674Z,72.22
2018-04-19T00:39:57.244Z,73.30
2018-04-19T00:42:24.776Z,73.98
2018-04-19T00:44:52.350Z,73.70
2018-04-19T00:47:20.552Z,72.88
2018-04-19T00:49:48.156Z,72.11
2018-04-19T00:52:15.707Z,71.68
2018-04-19T00:54:43.277Z,72.32
2018-04-19T00:57:10.811Z,72.93
2018-04-19T00:59:38.481Z,72.38
2018-04-19T01:02:06.014Z,72.29
2018-04-19T01:04:33.618Z,73.10
2018-04-19T01:07:01.142Z,73.33
2018-04-19T01:09:28.732Z,72.13
2018-04-19T01:11:56.270Z,71.85
2018-04-19T01:14:23.954Z,72.29
2018-04-19T01:16:52.130Z,74.49
2018-04-19T01:19:19.742Z,72.67
2018-04-19T01:21:47.310Z,74.61
2018-04-19T01:24:14.835Z,76.40
2018-04-19T01:26:42.483Z,77.36
2018-04-19T01:29:10.108Z,76.84
2018-04-19T01:31:37.651Z,78.31
2018-04-19T01:34:05.197Z,77.42
2018-04-19T01:36:32.821Z,77.44
2018-04-19T01:39:00.369Z,77.70
2018-04-19T01:41:27.925Z,76.35
2018-04-19T01:43:55.487Z,77.07
2018-04-19T01:46:23.054Z,76.92
2018-04-19T01:48:50.581Z,78.00
2018-04-19T01:51:18.139Z,77.41
2018-04-19T01:53:45.661Z,77.80
2018-04-19T01:56:13.214Z,77.61
2018-04-19T01:58:40.742Z,77.77
2018-04-19T02:01:08.319Z,77.19
2018-04-19T02:03:35.845Z,77.02
2018-04-19T02:06:03.402Z,77.40
2018-04-19T02:08:30.926Z,76.50
2018-04-19T02:10:58.502Z,76.67
2018-04-19T02:13:26.058Z,75.10
2018-04-19T02:15:53.605Z,73.98
2018-04-19T02:18:21.133Z,73.08
2018-04-19T02:20:48.738Z,72.80
2018-04-19T02:23:16.266Z,72.89
2018-04-19T02:25:45.794Z,72.22
2018-04-19T02:28:13.402Z,72.22
2018-04-19T02:30:40.975Z,72.29
2018-04-19T02:33:08.520Z,72.23
2018-04-19T02:35:36.198Z,72.89
2018-04-19T02:38:03.753Z,73.65
2018-04-19T02:40:31.330Z,75.08
2018-04-19T02:42:58.969Z,74.64
2018-04-19T02:45:26.522Z,75.53
2018-04-19T02:47:54.086Z,76.19
2018-04-19T02:50:22.413Z,75.57
2018-04-19T02:52:49.982Z,77.30
2018-04-19T02:55:17.544Z,77.29
2018-04-19T02:57:45.101Z,76.46
2018-04-19T03:00:12.699Z,76.55
2018-04-19T03:02:40.274Z,75.68
2018-04-19T03:05:07.827Z,75.70
2018-04-19T03:07:35.382Z,75.98
2018-04-19T03:10:02.983Z,75.46
2018-04-19T03:12:30.583Z,75.03
2018-04-19T03:14:58.109Z,77.91
2018-04-19T03:17:25.719Z,77.06
2018-04-19T03:19:53.291Z,77.21
2018-04-19T03:22:20.943Z,76.40
2018-04-19T03:24:48.469Z,75.57
2018-04-19T03:27:16.022Z,75.26
2018-04-19T03:29:43.566Z,74.97
2018-04-19T03:32:11.130Z,74.46
2018-04-19T03:34:38.654Z,74.94
2018-04-19T03:37:06.207Z,74.99
2018-04-19T03:39:33.739Z,75.95
2018-04-19T03:42:01.313Z,75.86
2018-04-19T03:44:28.875Z,75.65
2018-04-19T03:46:56.536Z,75.86
2018-04-19T03:49:24.061Z,76.20
2018-04-19T03:51:52.680Z,76.11
2018-04-19T03:54:20.222Z,76.15
2018-04-19T03:56:47.799Z,75.86
2018-04-19T03:59:15.357Z,76.92
2018-04-19T04:01:42.920Z,77.94
2018-04-19T04:04:10.458Z,77.13
2018-04-19T04:06:38.028Z,77.79
2018-04-19T04:09:06.457Z,77.29
2018-04-19T04:11:34.014Z,76.75
2018-04-19T04:14:01.543Z,77.22
2018-04-19T04:16:40.910Z,77.67
2018-04-19T04:19:20.411Z,77.52
2018-04-19T04:21:59.825Z,77.55
2018-04-19T04:24:27.350Z,77.57
2018-04-19T04:26:54.925Z,77.19
2018-04-19T04:29:22.701Z,77.41
2018-04-19T04:31:51.164Z,76.86
2018-04-19T04:34:18.737Z,76.37
2018-04-19T04:36:46.265Z,76.76
2018-04-19T04:39:13.837Z,76.94
2018-04-19T04:41:41.389Z,76.38
2018-04-19T04:44:11.386Z,80.22
2018-04-19T04:46:39.123Z,80.81
2018-04-19T04:49:06.794Z,80.87
2018-04-19T04:51:34.323Z,80.12
2018-04-19T04:54:01.924Z,78.96
2018-04-19T04:56:29.457Z,78.53
2018-04-19T04:58:57.033Z,77.83
2018-04-19T05:01:24.589Z,76.97
2018-04-19T05:03:52.873Z,76.92
2018-04-19T05:06:21.142Z,76.81
2018-04-19T05:08:48.741Z,77.19
2018-04-19T05:11:16.292Z,77.20
2018-04-19T05:13:44.820Z,77.14
2018-04-19T05:16:12.430Z,76.93
2018-04-19T05:18:40.025Z,76.56
2018-04-19T05:21:10.273Z,76.38
2018-04-19T05:23:37.831Z,76.48
2018-04-19T05:26:05.405Z,76.52
2018-04-19T05:28:32.967Z,75.98
2018-04-19T05:31:04.442Z,75.51
2018-04-19T05:33:34.041Z,76.62
2018-04-19T05:36:02.468Z,76.32
2018-04-19T05:38:30.195Z,76.21
2018-04-19T05:40:57.718Z,75.55
2018-04-19T05:43:25.298Z,75.86
2018-04-19T05:45:52.851Z,75.12
2018-04-19T05:48:20.425Z,75.27
2018-04-19T05:50:47.954Z,74.79
2018-04-19T05:53:15.525Z,73.81
2018-04-19T05:55:43.188Z,73.32
2018-04-19T05:58:10.761Z,72.81
2018-04-19T06:00:38.296Z,72.46
2018-04-19T06:03:05.919Z,72.48
2018-04-19T06:05:33.413Z,72.12
2018-04-19T06:08:00.975Z,71.59
2018-04-19T06:10:28.535Z,70.94
2018-04-19T06:12:56.098Z,70.62
2018-04-19T06:15:23.764Z,70.45
2018-04-19T06:17:51.404Z,70.46
2018-04-19T06:20:19.007Z,71.06
2018-04-19T06:22:46.563Z,70.16
2018-04-19T06:25:14.159Z,70.05
2018-04-19T06:27:41.711Z,69.69
2018-04-19T06:30:09.294Z,68.71
2018-04-19T06:32:36.819Z,68.73
2018-04-19T06:35:04.397Z,68.11
2018-04-19T06:37:31.937Z,68.17
2018-04-19T06:39:59.498Z,67.20
2018-04-19T06:42:27.024Z,66.42
2018-04-19T06:44:57.925Z,65.98
2018-04-19T06:47:25.678Z,65.66
2018-04-19T06:49:53.231Z,66.05
2018-04-19T06:52:20.845Z,64.74
2018-04-19T06:54:48.414Z,62.63
2018-04-19T06:57:15.938Z,62.17
2018-04-19T06:59:43.635Z,61.66
2018-04-19T07:02:11.293Z,61.09
2018-04-19T07:04:41.594Z,60.31
2018-04-19T07:07:09.198Z,60.10
2018-04-19T07:09:36.780Z,59.94
2018-04-19T07:12:04.698Z,58.61
2018-04-19T07:14:32.307Z,57.73
2018-04-19T07:16:59.921Z,58.26
2018-04-19T07:19:27.509Z,57.87
2018-04-19T07:21:55.063Z,57.03
2018-04-19T07:24:23.119Z,57.04
2018-04-19T07:26:50.773Z,57.58
2018-04-19T07:29:18.622Z,57.15
2018-04-19T07:31:46.418Z,57.00
2018-04-19T07:34:14.502Z,56.07
2018-04-19T07:36:42.099Z,55.90
2018-04-19T07:39:09.677Z,55.79
2018-04-19T07:41:37.204Z,55.50
2018-04-19T07:44:04.832Z,54.99
2018-04-19T07:46:32.402Z,54.42
2018-04-19T07:49:00.233Z,54.62
2018-04-19T07:51:27.849Z,53.59
2018-04-19T07:53:55.369Z,53.17
2018-04-19T07:56:22.944Z,53.71
2018-04-19T07:58:50.494Z,53.74
2018-04-19T08:01:18.071Z,53.75
2018-04-19T08:03:45.599Z,53.30
2018-04-19T08:06:13.177Z,52.16
2018-04-19T08:08:40.702Z,52.02
2018-04-19T08:11:08.381Z,51.67
2018-04-19T08:13:36.379Z,51.49
2018-04-19T08:16:04.034Z,51.12
2018-04-19T08:18:31.561Z,50.46
2018-04-19T08:20:59.119Z,50.90
2018-04-19T08:23:26.692Z,51.43
2018-04-19T08:25:54.364Z,51.15
2018-04-19T08:28:21.898Z,50.55
2018-04-19T08:30:49.474Z,49.86
2018-04-19T08:33:17.026Z,49.81
2018-04-19T08:35:44.574Z,50.08
2018-04-19T08:38:12.106Z,49.41
2018-04-19T08:40:39.709Z,48.52
2018-04-19T08:43:07.279Z,47.43
2018-04-19T08:45:34.848Z,46.39
2018-04-19T08:48:02.389Z,44.99
2018-04-19T08:50:29.966Z,45.23
2018-04-19T08:52:57.522Z,45.31
2018-04-19T08:55:25.475Z,44.52
2018-04-19T08:57:54.492Z,45.28
2018-04-19T09:00:22.094Z,44.50
2018-04-19T09:02:49.718Z,44.55
2018-04-19T09:05:17.285Z,44.29
2018-04-19T09:07:44.912Z,43.54
2018-04-19T09:10:12.484Z,42.97
2018-04-19T09:12:40.010Z,43.93
2018-04-19T09:15:07.591Z,43.99
2018-04-19T09:17:35.155Z,44.12
2018-04-19T09:20:02.718Z,41.20
2018-04-19T09:22:31.830Z,42.13
2018-04-19T09:24:59.526Z,42.65
2018-04-19T09:27:27.500Z,41.82
2018-04-19T09:29:55.493Z,41.83
2018-04-19T09:32:23.531Z,41.47
2018-04-19T09:34:51.282Z,41.62
2018-04-19T09:37:19.308Z,41.13
2018-04-19T09:39:47.189Z,40.86
2018-04-19T09:42:14.888Z,41.71
2018-04-19T09:44:42.713Z,41.33
2018-04-19T09:47:10.266Z,40.29
2018-04-19T09:49:39.695Z,40.10
2018-04-19T09:52:07.374Z,40.92
2018-04-19T09:54:38.525Z,39.77
2018-04-19T09:57:08.230Z,39.86
2018-04-19T09:59:38.014Z,40.91
2018-04-19T10:02:07.847Z,40.54
2018-04-19T10:04:37.907Z,38.81
2018-04-19T10:07:06.577Z,38.57
2018-04-19T10:09:35.362Z,39.61
2018-04-19T10:12:03.541Z,39.69
2018-04-19T10:14:32.843Z,39.94
2018-04-19T10:17:06.557Z,40.16
2018-04-19T10:19:35.091Z,39.42
2018-04-19T10:22:03.430Z,40.19
2018-04-19T10:24:31.327Z,38.46
2018-04-19T10:26:58.879Z,38.08
2018-04-19T10:29:26.882Z,37.67
2018-04-19T10:31:54.458Z,37.95
2018-04-19T10:34:24.303Z,38.51
2018-04-19T10:36:52.562Z,39.19
2018-04-19T10:39:21.068Z,38.17
2018-04-19T10:41:51.443Z,38.39
2018-04-19T10:44:19.195Z,38.14
2018-04-19T10:46:46.998Z,37.92
2018-04-19T10:49:17.803Z,37.31
2018-04-19T10:51:47.703Z,36.06
2018-04-19T10:54:15.310Z,36.82
2018-04-19T10:56:44.959Z,37.07
2018-04-19T10:59:13.425Z,36.97
2018-04-19T11:01:41.611Z,37.20
2018-04-19T11:04:10.487Z,37.51
2018-04-19T11:06:38.145Z,34.75
2018-04-19T11:09:05.919Z,34.64
2018-04-19T11:11:36.445Z,36.73
2018-04-19T11:14:06.278Z,36.80
2018-04-19T11:16:37.596Z,37.06
2018-04-19T11:19:08.948Z,35.44
2018-04-19T11:21:38.080Z,35.84
2018-04-19T11:24:08.531Z,35.43
2018-04-19T11:26:40.657Z,34.06
2018-04-19T11:29:11.710Z,34.03
2018-04-19T11:31:39.871Z,34.73
2018-04-19T11:34:11.105Z,34.82
2018-04-19T11:36:41.839Z,34.18
2018-04-19T11:39:14.294Z,34.36
2018-04-19T11:41:43.870Z,34.27
2018-04-19T11:44:13.201Z,34.21
2018-04-19T11:46:41.306Z,33.11
2018-04-19T11:49:12.673Z,32.57
2018-04-19T11:51:44.406Z,33.49
2018-04-19T11:54:12.107Z,33.82
2018-04-19T11:56:41.391Z,34.07
2018-04-19T11:59:12.824Z,33.71
2018-04-19T12:01:40.914Z,33.39
2018-04-19T12:04:08.500Z,32.65
2018-04-19T12:06:36.034Z,32.76
2018-04-19T12:09:03.673Z,34.16
2018-04-19T12:11:31.226Z,31.45
2018-04-19T12:13:58.778Z,31.74
2018-04-19T12:16:27.124Z,33.07
2018-04-19T12:18:54.707Z,31.29
2018-04-19T12:21:22.263Z,31.22
2018-04-19T12:23:49.836Z,32.61
2018-04-19T12:26:17.401Z,29.48
2018-04-19T12:28:44.991Z,31.34
2018-04-19T12:31:12.591Z,31.88
2018-04-19T12:33:40.175Z,30.81
2018-04-19T12:36:07.702Z,29.68
2018-04-19T12:38:35.248Z,30.76
2018-04-19T12:41:02.779Z,29.14
2018-04-19T12:43:30.353Z,28.64
2018-04-19T12:45:57.936Z,29.33
2018-04-19T12:48:25.860Z,30.67
2018-04-19T12:50:54.316Z,29.75
2018-04-19T12:53:21.937Z,28.64
2018-04-19T12:55:50.012Z,29.39
2018-04-19T12:58:17.649Z,30.38
2018-04-19T13:00:45.770Z,27.64
2018-04-19T13:03:13.624Z,28.88
2018-04-19T13:05:42.240Z,29.20
2018-04-19T13:08:09.801Z,28.89
2018-04-19T13:10:37.332Z,28.41
2018-04-19T13:13:08.956Z,29.02
2018-04-19T13:15:42.735Z,29.22
2018-04-19T13:18:15.329Z,29.22
2018-04-19T13:20:49.486Z,29.12
2018-04-19T13:23:22.918Z,29.61
2018-04-19T13:25:55.620Z,28.77
2018-04-19T13:28:29.244Z,29.30
2018-04-19T13:31:01.147Z,28.98
2018-04-19T13:33:33.899Z,28.93
2018-04-19T13:36:05.453Z,27.85
2018-04-19T13:38:40.725Z,29.37
2018-04-19T13:43:55.616Z,29.13
2018-04-19T13:46:29.180Z,29.40
2018-04-19T13:49:01.166Z,27.60
2018-04-19T13:51:29.118Z,27.20
2018-04-19T13:53:59.669Z,28.58
2018-04-19T13:56:28.114Z,27.71
2018-04-19T13:58:56.072Z,29.18
2018-04-19T14:01:24.584Z,26.08
2018-04-19T14:03:53.074Z,27.55
2018-04-19T14:06:20.732Z,28.35
2018-04-19T14:08:48.759Z,27.88
2018-04-19T14:11:16.382Z,28.04
2018-04-19T14:13:45.782Z,28.44
2018-04-19T14:16:16.318Z,27.45
2018-04-19T14:18:45.403Z,26.65
2018-04-19T14:21:13.292Z,28.14
2018-04-19T14:23:45.697Z,27.69
2018-04-19T14:26:16.042Z,27.90
2018-04-19T14:28:44.775Z,28.38
2018-04-19T14:31:12.806Z,28.14
2018-04-19T14:33:40.388Z,27.71
2018-04-19T14:36:08.265Z,28.36
2018-04-19T14:38:35.858Z,27.18
2018-04-19T14:41:03.439Z,27.62
2018-04-19T14:43:30.965Z,28.16
2018-04-19T14:45:58.518Z,27.57
2018-04-19T14:48:26.083Z,27.87
2018-04-19T14:50:53.646Z,26.87
2018-04-19T14:53:21.626Z,27.58
2018-04-19T14:55:49.796Z,26.86
2018-04-19T14:58:17.376Z,26.26
2018-04-19T15:00:44.990Z,26.16
2018-04-19T15:03:12.483Z,26.20
2018-04-19T15:05:40.057Z,27.06
2018-04-19T15:08:07.586Z,26.76
2018-04-19T15:10:35.153Z,26.17
2018-04-19T15:13:02.677Z,26.44
2018-04-19T15:15:30.242Z,25.72
2018-04-19T15:17:57.777Z,25.24
2018-04-19T15:20:25.448Z,26.89
2018-04-19T15:22:52.978Z,25.66
2018-04-19T15:25:20.526Z,27.11
2018-04-19T15:27:48.100Z,25.88
2018-04-19T15:30:15.655Z,25.64
2018-04-19T15:32:43.174Z,25.59
2018-04-19T15:35:10.742Z,25.47
2018-04-19T15:37:38.261Z,25.25
2018-04-19T15:40:05.814Z,24.15
2018-04-19T15:42:33.362Z,24.40
2018-04-19T15:45:00.973Z,24.82
2018-04-19T15:47:29.217Z,25.17
2018-04-19T15:49:58.482Z,24.12
2018-04-19T15:52:26.130Z,24.22
2018-04-19T15:54:54.439Z,23.75
2018-04-19T15:57:22.028Z,22.56
2018-04-19T15:59:49.609Z,23.52
2018-04-19T16:02:17.185Z,23.26
2018-04-19T16:04:44.738Z,23.79
2018-04-19T16:07:12.258Z,23.89
2018-04-19T16:09:40.810Z,23.01
2018-04-19T16:12:08.370Z,23.33
2018-04-19T16:14:35.898Z,22.47
2018-04-19T16:17:04.444Z,22.83
2018-04-19T16:19:32.130Z,22.79
2018-04-19T16:21:59.965Z,23.48
2018-04-19T16:24:27.621Z,23.06
2018-04-19T16:26:55.526Z,23.04
2018-04-19T16:29:23.159Z,24.79
2018-04-19T16:31:50.730Z,23.80
2018-04-19T16:34:18.261Z,23.70
2018-04-19T16:36:45.832Z,24.28
2018-04-19T16:39:13.593Z,23.53
2018-04-19T16:41:41.246Z,23.64
2018-04-19T16:44:14.664Z,25.12
2018-04-19T16:46:45.900Z,24.29
2018-04-19T16:49:18.084Z,24.97
2018-04-19T16:51:47.795Z,24.72
2018-04-19T16:54:16.415Z,24.29
2018-04-19T16:56:46.789Z,25.52
2018-04-19T16:59:15.206Z,25.41
2018-04-19T17:01:44.151Z,26.08
2018-04-19T17:04:12.614Z,26.31
2018-04-19T17:06:42.147Z,26.24
2018-04-19T17:09:13.143Z,26.60
2018-04-19T17:11:42.657Z,26.36
2018-04-19T17:14:11.525Z,27.26
2018-04-19T17:16:41.707Z,26.74
2018-04-19T17:19:10.506Z,26.67
2018-04-19T17:21:40.919Z,26.78
2018-04-19T17:24:12.336Z,26.71
2018-04-19T17:26:43.250Z,26.64
2018-04-19T17:29:13.160Z,23.58
2018-04-19T17:31:41.567Z,23.19
2018-04-19T17:34:12.160Z,23.95
2018-04-19T17:36:42.283Z,23.03
2018-04-19T17:39:12.772Z,24.43
2018-04-19T17:41:44.276Z,25.13
2018-04-19T17:44:13.874Z,25.14
2018-04-19T17:46:46.208Z,25.48
2018-04-19T17:49:17.234Z,26.98
2018-04-19T17:51:49.133Z,27.58
2018-04-19T17:54:17.533Z,28.15
2018-04-19T17:56:46.261Z,30.87
2018-04-19T17:59:15.718Z,31.27
2018-04-19T18:01:51.304Z,32.21
2018-04-19T18:04:23.110Z,33.29
2018-04-19T18:06:50.773Z,32.92
2018-04-19T18:09:18.408Z,33.79
2018-04-19T18:11:46.071Z,32.42
2018-04-19T18:14:13.707Z,32.87
2018-04-19T18:16:41.274Z,35.00
2018-04-19T18:19:08.801Z,35.54
2018-04-19T18:21:37.127Z,36.91
2018-04-19T18:24:04.697Z,37.82
2018-04-19T18:26:32.263Z,38.24
2018-04-19T18:28:59.920Z,39.25
2018-04-19T18:31:27.674Z,39.72
2018-04-19T18:33:55.338Z,39.91
2018-04-19T18:36:22.921Z,41.13
2018-04-19T18:38:50.452Z,41.54
2018-04-19T18:41:19.100Z,42.42
2018-04-19T18:43:47.130Z,43.15
2018-04-19T18:46:16.479Z,43.57
2018-04-19T18:48:46.079Z,44.19
2018-04-19T18:51:13.802Z,45.33
2018-04-19T18:53:41.470Z,46.34
2018-04-19T18:56:09.003Z,46.41
2018-04-19T18:58:37.226Z,46.43
2018-04-19T19:03:55.174Z,47.83
2018-04-19T19:06:23.106Z,48.66
2018-04-19T19:08:51.134Z,48.35
2018-04-19T19:11:18.857Z,50.73
2018-04-19T19:13:46.483Z,50.53
2018-04-19T19:16:14.089Z,49.91
2018-04-19T19:18:53.535Z,50.54
2018-04-19T19:21:21.066Z,51.18
2018-04-19T19:23:48.634Z,51.65
2018-04-19T19:26:16.170Z,52.91
2018-04-19T19:28:43.731Z,52.85
2018-04-19T19:31:11.268Z,53.70
2018-04-19T19:33:38.860Z,55.11
2018-04-19T19:36:06.623Z,56.05
2018-04-19T19:38:34.257Z,54.84
2018-04-19T19:41:01.788Z,53.93
2018-04-19T19:43:30.158Z,54.23
2018-04-19T19:45:57.707Z,53.77
2018-04-19T19:48:25.264Z,53.47
2018-04-19T19:50:52.791Z,53.28
2018-04-19T19:53:20.843Z,55.32
2018-04-19T19:55:48.376Z,55.75
2018-04-19T19:58:15.947Z,55.75
2018-04-19T20:00:43.554Z,56.04
2018-04-19T20:03:12.054Z,56.33
2018-04-19T20:05:39.607Z,56.36
2018-04-19T20:08:07.230Z,57.58
2018-04-19T20:10:34.757Z,56.67
2018-04-19T20:13:02.314Z,57.09
2018-04-19T20:15:29.869Z,56.83
2018-04-19T20:17:57.448Z,58.33
2018-04-19T20:20:24.970Z,57.96
2018-04-19T20:22:52.519Z,59.02
2018-04-19T20:25:20.072Z,58.95
2018-04-19T20:27:47.654Z,60.12
2018-04-19T20:30:15.180Z,60.16
2018-04-19T20:32:42.728Z,60.60
2018-04-19T20:35:10.258Z,61.16
2018-04-19T20:37:37.811Z,61.82
2018-04-19T20:40:05.362Z,60.78
2018-04-19T20:42:32.914Z,61.40
2018-04-19T20:45:00.442Z,61.96
2018-04-19T20:47:28.145Z,62.66
2018-04-19T20:49:55.694Z,63.65
2018-04-19T20:52:23.220Z,62.93
2018-04-19T20:54:50.769Z,63.23
2018-04-19T20:57:18.302Z,64.56
2018-04-19T20:59:45.871Z,63.82
2018-04-19T21:02:13.403Z,64.50
2018-04-19T21:04:40.953Z,65.60
2018-04-19T21:07:12.009Z,65.37
2018-04-19T21:09:39.829Z,64.97
2018-04-19T21:12:10.964Z,64.92
2018-04-19T21:14:40.117Z,65.83
2018-04-19T21:17:10.200Z,64.85
2018-04-19T21:19:38.400Z,64.34
2018-04-19T21:22:06.631Z,64.48
2018-04-19T21:24:34.325Z,65.65
2018-04-19T21:27:01.844Z,65.05
2018-04-19T21:29:29.762Z,65.76
2018-04-19T21:31:57.533Z,65.32
2018-04-19T21:34:25.241Z,65.43
2018-04-19T21:36:53.148Z,66.58
2018-04-19T21:39:21.570Z,66.80
2018-04-19T21:41:49.561Z,68.67
2018-04-19T21:44:17.443Z,67.46
2018-04-19T21:46:44.996Z,67.71
2018-04-19T21:49:12.826Z,67.86
2018-04-19T21:51:40.602Z,67.67
2018-04-19T21:54:08.669Z,67.28
2018-04-19T21:56:36.461Z,67.64
2018-04-19T21:59:04.196Z,67.90
2018-04-19T22:01:32.184Z,67.45
2018-04-19T22:04:00.061Z,68.05
2018-04-19T22:06:27.617Z,67.48
2018-04-19T22:08:55.170Z,68.62
2018-04-19T22:11:22.718Z,68.04
2018-04-19T22:13:50.272Z,68.16
2018-04-19T22:16:17.792Z,69.46
2018-04-19T22:18:45.355Z,69.04
2018-04-19T22:21:12.931Z,68.37
2018-04-19T22:23:41.989Z,68.79
2018-04-19T22:26:10.088Z,69.46
2018-04-19T22:28:37.637Z,69.23
2018-04-19T22:31:05.188Z,69.00
2018-04-19T22:33:32.739Z,69.78
2018-04-19T22:36:00.318Z,69.37
2018-04-19T22:38:27.845Z,69.34
2018-04-19T22:40:55.500Z,70.06
2018-04-19T22:43:23.026Z,71.09
2018-04-19T22:45:50.711Z,69.65
2018-04-19T22:48:18.251Z,69.82
2018-04-19T22:50:45.856Z,70.23
2018-04-19T22:53:13.403Z,69.83
2018-04-19T22:55:40.963Z,70.39
2018-04-19T22:58:08.490Z,70.37
2018-04-19T23:00:36.058Z,70.06
2018-04-19T23:03:03.594Z,69.95
2018-04-19T23:05:31.193Z,69.93
2018-04-19T23:07:58.726Z,69.27
2018-04-19T23:10:26.301Z,69.20
2018-04-19T23:12:53.825Z,70.06
2018-04-19T23:15:21.726Z,71.56
2018-04-19T23:17:49.279Z,71.39
2018-04-19T23:20:16.859Z,71.72
2018-04-19T23:22:44.384Z,70.95
2018-04-19T23:25:11.957Z,71.99
2018-04-19T23:27:39.520Z,71.34
2018-04-19T23:30:07.123Z,71.80
2018-04-19T23:32:34.644Z,71.35
2018-04-19T23:35:02.213Z,70.88
2018-04-19T23:37:29.747Z,70.91
2018-04-19T23:39:57.301Z,71.58
2018-04-19T23:50:06.261Z,71.82
2018-04-19T23:52:33.838Z,71.41
2018-04-19T23:55:01.368Z,71.44
2018-04-19T23:57:28.943Z,70.78
2018-04-19T23:59:56.544Z,71.68
